04II weather

Turkey Run Airport
New Haven, Indiana, United States

Public forecast

Using degrees Fahrenheit for public forecast. Weather courtesy of forecast.io.

METAR (pilot weather report)

Closest report is De Kalb County Airport, 11.1 nm (20.5 km) NNW. Retrieved 2019/04/24 01:35 UTC (54 seconds ago):

KGWB 240135Z AUTO 30006KT 10SM CLR 08/04 A3003 RMK AO2

TAF (pilot weather forecast)

Forecast is more than 12 hours old.

Closest forecast is Fort Wayne International Airport, 12.9 nm (23.9 km) SW. Retrieved 2019/04/23 00:22 UTC (1 day ago):

TAF KFWA 232320Z 2400/2424 30010KT P6SM FEW015 BKN250 FM240200 VRB03KT P6SM SCT200